Time;durP1;ratioP1;P1;durP2;ratioP2;P2;SDS_P1;SDS_P2;PMS_P1;PMS_P2;Temp;Humidity;BMP_temperature;BMP_pressure;BME280_temperature;BME280_humidity;BME280_pressure;Samples;Min_cycle;Max_cycle;Signal;HPM_P1;HPM_P2
2022/01/22 00:02:07;;;;;;;1.77;1.67;;;;;;;4.29;83.88;102716.16;5216056;28;20033;-79
2022/01/22 00:04:38;;;;;;;0.80;0.80;;;;;;;4.37;83.71;102717.28;5187135;28;20497;-79
2022/01/22 00:07:10;;;;;;;2.30;1.30;;;;;;;4.48;82.76;102714.13;5169320;28;20072;-80
2022/01/22 00:09:48;;;;;;;0.47;0.47;;;;;;;4.46;82.91;102728.81;5186092;28;20544;-80
2022/01/22 00:12:40;;;;;;;1.15;1.13;;;;;;;4.47;83.36;102727.97;5203443;28;20404;-79
2022/01/22 00:15:14;;;;;;;1.38;1.27;;;;;;;4.46;83.11;102729.69;5200503;28;20041;-80
2022/01/22 00:17:46;;;;;;;0.60;0.60;;;;;;;4.41;82.83;102726.06;5198150;28;20053;-80
2022/01/22 00:20:19;;;;;;;0.75;0.75;;;;;;;4.39;83.68;102725.13;5208061;28;20103;-80
2022/01/22 00:22:50;;;;;;;0.98;0.98;;;;;;;4.34;83.37;102719.78;5200680;28;20030;-80
2022/01/22 00:25:22;;;;;;;1.42;1.23;;;;;;;4.37;83.66;102722.47;5205102;28;20025;-80
2022/01/22 00:27:52;;;;;;;0.75;0.75;;;;;;;4.42;83.14;102730.44;5219458;28;20046;-79
2022/01/22 00:30:25;;;;;;;4.28;1.60;;;;;;;4.49;83.14;102728.91;5203198;28;20037;-80
2022/01/22 00:32:56;;;;;;;2.30;2.10;;;;;;;4.44;82.86;102733.06;5169144;28;20037;-80
2022/01/22 00:35:26;;;;;;;24.65;1.38;;;;;;;4.45;82.69;102729.63;5184719;28;20065;-79
2022/01/22 00:37:59;;;;;;;2.28;2.08;;;;;;;4.48;83.11;102724.53;5220058;28;20040;-79
2022/01/22 00:40:29;;;;;;;2.13;2.03;;;;;;;4.48;83.27;102732.34;5221186;28;20017;-80
2022/01/22 00:43:00;;;;;;;5.18;2.35;;;;;;;4.45;83.14;102729.63;5201438;28;20041;-79
2022/01/22 00:45:31;;;;;;;0.73;0.73;;;;;;;4.50;82.50;102738.47;5203246;28;20013;-78
2022/01/22 00:48:01;;;;;;;0.70;0.70;;;;;;;4.51;82.93;102735.00;5203863;28;20068;-78
2022/01/22 00:50:32;;;;;;;0.52;0.52;;;;;;;4.43;82.17;102731.28;5167684;28;20111;-78
2022/01/22 00:53:02;;;;;;;1.15;1.15;;;;;;;4.44;82.75;102736.56;5182191;28;20080;-78
2022/01/22 00:55:33;;;;;;;1.75;1.65;;;;;;;4.43;82.94;102740.00;5181536;28;20029;-78
2022/01/22 00:58:03;;;;;;;0.98;0.98;;;;;;;4.49;82.69;102736.69;5180505;28;20065;-78
2022/01/22 01:00:34;;;;;;;2.10;2.00;;;;;;;4.41;82.83;102739.06;5166280;28;20061;-78
2022/01/22 01:03:05;;;;;;;0.98;0.98;;;;;;;4.49;82.74;102739.31;5179377;28;20120;-78
2022/01/22 01:05:36;;;;;;;1.33;1.33;;;;;;;4.40;83.29;102735.59;5196539;28;20033;-78
2022/01/22 01:08:06;;;;;;;1.48;1.40;;;;;;;4.30;83.78;102735.25;5184342;28;20447;-78
2022/01/22 01:10:37;;;;;;;0.50;0.50;;;;;;;4.31;83.17;102732.69;5169894;28;20039;-79
2022/01/22 01:13:07;;;;;;;1.27;1.25;;;;;;;4.32;84.30;102729.28;5208627;28;20029;-79
2022/01/22 01:15:43;;;;;;;4.97;2.45;;;;;;;4.24;84.98;102725.56;5219347;28;20403;-78
2022/01/22 01:32:23;;;;;;;1.65;1.58;;;;;;;4.23;85.51;102714.25;5218152;28;20041;-78
2022/01/22 01:34:54;;;;;;;1.05;1.05;;;;;;;4.37;84.94;102725.09;5199182;28;20055;-79
2022/01/22 01:37:25;;;;;;;1.58;1.50;;;;;;;4.28;84.86;102722.19;5200235;28;20112;-79
2022/01/22 01:40:00;;;;;;;0.70;0.70;;;;;;;4.22;85.49;102716.81;5206359;28;20117;-79
2022/01/22 01:45:06;;;;;;;2.35;2.15;;;;;;;4.30;84.86;102728.34;5185220;28;20026;-78
2022/01/22 01:47:38;;;;;;;0.63;0.63;;;;;;;4.24;85.83;102734.22;5213145;28;20543;-79
2022/01/22 01:50:09;;;;;;;2.42;1.63;;;;;;;4.27;86.07;102732.56;5190536;28;20115;-78
2022/01/22 01:53:04;;;;;;;2.00;1.90;;;;;;;4.19;85.57;102724.50;5190319;28;20050;-79
2022/01/22 01:55:49;;;;;;;0.70;0.70;;;;;;;4.15;85.69;102726.13;5222253;28;20044;-78
2022/01/22 01:58:19;;;;;;;0.98;0.98;;;;;;;4.20;86.00;102718.47;5200869;28;20033;-79
2022/01/22 02:00:51;;;;;;;5.72;2.53;;;;;;;4.17;86.17;102719.25;5223252;28;20341;-79
2022/01/22 02:03:23;;;;;;;1.00;1.00;;;;;;;4.21;85.78;102721.16;5205612;28;20044;-79
2022/01/22 02:05:53;;;;;;;0.60;0.60;;;;;;;4.26;85.84;102721.25;5190813;28;20080;-79
2022/01/22 02:08:26;;;;;;;1.10;1.10;;;;;;;4.25;85.72;102711.72;5207029;28;20044;-78
2022/01/22 02:11:00;;;;;;;3.10;2.80;;;;;;;4.23;85.96;102727.25;5192724;28;20056;-79
2022/01/22 02:24:57;;;;;;;1.15;1.15;;;;;;;4.17;85.98;102710.59;5220186;28;19923;-78
2022/01/22 02:27:28;;;;;;;1.48;1.38;;;;;;;4.29;85.62;102718.75;5200344;28;20531;-78
2022/01/22 02:29:58;;;;;;;0.60;0.60;;;;;;;4.31;85.85;102709.31;5203951;28;20036;-78
2022/01/22 02:35:28;;;;;;;1.08;1.08;;;;;;;4.41;85.57;102705.25;5219004;28;20032;-79
2022/01/22 02:38:08;;;;;;;2.13;1.92;;;;;;;4.32;85.70;102698.09;5235124;28;20041;-78
2022/01/22 02:40:45;;;;;;;0.90;0.90;;;;;;;4.21;86.36;102696.84;5220946;28;20094;-78
2022/01/22 02:43:17;;;;;;;0.90;0.90;;;;;;;4.34;85.87;102691.19;5221052;28;20059;-79
2022/01/22 02:45:48;;;;;;;0.75;0.75;;;;;;;4.31;85.55;102690.22;5204516;28;20752;-78
2022/01/22 02:48:19;;;;;;;3.80;1.83;;;;;;;4.34;85.95;102688.59;5203176;28;20406;-78
2022/01/22 02:50:49;;;;;;;0.70;0.70;;;;;;;4.33;85.76;102693.75;5204923;28;20025;-79
2022/01/22 02:53:20;;;;;;;0.88;0.88;;;;;;;4.40;85.27;102686.19;5203322;28;20037;-79
2022/01/22 02:55:51;;;;;;;0.98;0.98;;;;;;;4.45;85.00;102693.25;5202605;28;20546;-79
2022/01/22 02:58:21;;;;;;;0.95;0.95;;;;;;;4.30;85.55;102686.75;5187867;28;20033;-78
2022/01/22 03:00:52;;;;;;;1.65;1.65;;;;;;;4.39;85.00;102692.22;5207158;28;20044;-78
2022/01/22 03:03:23;;;;;;;1.08;1.05;;;;;;;4.27;84.74;102702.22;5225428;28;20067;-79
2022/01/22 03:05:53;;;;;;;1.30;1.25;;;;;;;4.29;85.42;102694.50;5221156;28;20074;-79
2022/01/22 03:08:28;;;;;;;2.40;1.95;;;;;;;4.37;85.53;102700.81;5201959;28;20037;-78
2022/01/22 03:11:00;;;;;;;1.35;1.33;;;;;;;4.24;85.87;102691.75;5237915;28;20032;-78
2022/01/22 03:16:34;;;;;;;0.98;0.98;;;;;;;4.32;85.28;102699.78;5220953;28;20029;-79
2022/01/22 03:19:12;;;;;;;0.70;0.70;;;;;;;4.36;85.65;102693.84;5221096;28;20029;-79
2022/01/22 03:21:56;;;;;;;1.42;1.33;;;;;;;4.27;85.96;102694.44;5188695;28;20044;-79
2022/01/22 03:27:26;;;;;;;2.17;2.08;;;;;;;4.39;85.01;102701.72;5205901;28;20079;-78
2022/01/22 03:29:57;;;;;;;1.05;1.05;;;;;;;4.39;85.38;102694.84;5167628;28;20560;-79
2022/01/22 03:32:34;;;;;;;3.97;2.08;;;;;;;4.40;84.87;102694.00;5183776;28;20041;-79
2022/01/22 03:37:42;;;;;;;21.75;2.55;;;;;;;4.37;85.74;102690.44;5201624;28;20129;-78
2022/01/22 03:40:14;;;;;;;0.98;0.98;;;;;;;4.33;85.41;102699.84;5168902;28;20030;-79
2022/01/22 03:42:44;;;;;;;2.95;2.67;;;;;;;4.34;85.24;102701.59;5202546;28;20044;-78
2022/01/22 03:45:17;;;;;;;1.05;1.05;;;;;;;4.46;84.41;102705.41;5201309;28;20025;-79
2022/01/22 03:47:48;;;;;;;1.58;1.58;;;;;;;4.37;85.71;102700.81;5184844;28;20041;-78
2022/01/22 03:50:19;;;;;;;1.25;1.25;;;;;;;4.43;85.14;102700.09;5167557;28;20060;-78
2022/01/22 03:52:50;;;;;;;1.75;1.63;;;;;;;4.46;84.54;102700.19;5168420;28;20132;-78
2022/01/22 03:56:02;;;;;;;1.27;1.23;;;;;;;4.40;85.06;102711.28;5205570;28;20148;-79
2022/01/22 03:58:17;;;;;;;0.70;0.70;;;;;;;4.43;85.53;102715.69;5197241;28;20029;-79
2022/01/22 04:00:51;;;;;;;2.25;1.23;;;;;;;4.45;85.01;102708.84;5183368;28;20762;-77
2022/01/22 04:03:29;;;;;;;2.25;1.65;;;;;;;4.53;84.51;102712.53;5190638;28;20076;-78
2022/01/22 04:08:51;;;;;;;0.90;0.90;;;;;;;4.47;85.53;102712.38;5186690;28;20792;-79
2022/01/22 04:11:22;;;;;;;2.57;1.57;;;;;;;4.45;84.81;102708.84;5199110;28;20033;-79
2022/01/22 04:13:58;;;;;;;6.13;1.95;;;;;;;4.47;85.05;102709.78;5180247;28;20051;-78
2022/01/22 04:16:30;;;;;;;1.13;1.02;;;;;;;4.58;84.08;102711.00;5194824;28;20025;-78
2022/01/22 04:24:54;;;;;;;1.35;1.35;;;;;;;4.53;84.32;102712.53;5195477;28;20042;-78
2022/01/22 04:27:27;;;;;;;0.73;0.73;;;;;;;4.54;84.33;102716.91;5164013;28;20041;-78
2022/01/22 04:29:59;;;;;;;1.37;1.37;;;;;;;4.56;84.30;102716.13;5181421;28;20036;-78
2022/01/22 04:32:31;;;;;;;2.55;2.20;;;;;;;4.51;84.29;102720.31;5181946;28;20752;-78
2022/01/22 04:35:02;;;;;;;1.33;1.33;;;;;;;4.49;84.67;102710.72;5170357;28;20037;-78
2022/01/22 04:37:33;;;;;;;2.30;2.20;;;;;;;4.61;84.93;102708.47;5161650;28;20695;-78
2022/01/22 04:40:04;;;;;;;1.42;1.38;;;;;;;4.53;84.76;102702.16;5167938;28;20095;-78
2022/01/22 04:42:37;;;;;;;1.92;1.83;;;;;;;4.54;85.35;102706.50;5200505;28;20412;-78
2022/01/22 04:48:09;;;;;;;5.78;3.72;;;;;;;4.45;85.53;102706.22;5196388;28;20423;-77
2022/01/22 04:56:18;;;;;;;1.58;1.52;;;;;;;4.63;84.75;102705.94;5202301;28;20040;-79
2022/01/22 04:58:49;;;;;;;2.28;2.17;;;;;;;4.51;84.98;102706.41;5205528;28;20068;-78
2022/01/22 05:01:19;;;;;;;2.85;2.63;;;;;;;4.58;84.75;102708.38;5204399;28;20076;-78
2022/01/22 05:03:50;;;;;;;3.30;2.15;;;;;;;4.63;85.08;102708.53;5186913;28;20026;-78
2022/01/22 05:06:20;;;;;;;1.98;1.88;;;;;;;4.59;85.17;102707.53;5184066;28;20033;-79
2022/01/22 05:08:51;;;;;;;2.58;2.47;;;;;;;4.51;85.41;102709.91;5203820;28;20037;-78
2022/01/22 05:11:24;;;;;;;1.27;1.23;;;;;;;4.64;85.17;102705.97;5202039;28;20087;-78
2022/01/22 05:13:54;;;;;;;1.93;1.83;;;;;;;4.47;86.12;102708.03;5186402;28;20029;-78
2022/01/22 05:16:25;;;;;;;3.28;2.55;;;;;;;4.59;85.22;102709.25;5168174;28;20040;-79
2022/01/22 05:19:04;;;;;;;1.52;1.45;;;;;;;4.55;85.22;102705.69;5170408;28;20032;-79
2022/01/22 05:21:36;;;;;;;1.58;1.20;;;;;;;4.63;84.95;102699.00;5198732;28;20033;-78
2022/01/22 05:24:12;;;;;;;2.10;2.00;;;;;;;4.66;85.08;102706.00;5197201;28;20467;-78
2022/01/22 05:27:11;;;;;;;4.03;3.22;;;;;;;4.62;85.40;102701.56;5223106;28;20272;-79
2022/01/22 05:37:45;;;;;;;1.63;1.52;;;;;;;4.52;85.91;102702.97;5220051;28;20036;-78
2022/01/22 05:40:15;;;;;;;1.92;1.83;;;;;;;4.49;86.24;102705.50;5205991;28;20644;-78
2022/01/22 05:42:46;;;;;;;2.42;2.33;;;;;;;4.63;85.63;102708.53;5204466;28;20117;-78
2022/01/22 05:45:16;;;;;;;2.15;2.05;;;;;;;4.70;85.65;102713.06;5209118;28;20013;-78
2022/01/22 05:47:47;;;;;;;3.47;2.88;;;;;;;4.73;84.90;102714.03;5230571;28;20540;-78
2022/01/22 05:50:37;;;;;;;3.28;3.08;;;;;;;4.75;85.25;102713.22;5206521;28;20614;-79
2022/01/22 05:53:19;;;;;;;1.63;1.52;;;;;;;4.69;85.08;102719.97;5206175;28;20059;-79
2022/01/22 06:01:17;;;;;;;4.55;1.85;;;;;;;4.90;84.81;102729.25;5200910;28;20072;-79
2022/01/22 06:03:48;;;;;;;1.33;1.23;;;;;;;4.93;84.26;102723.25;5178539;28;20057;-78
2022/01/22 06:06:19;;;;;;;2.70;2.17;;;;;;;4.80;85.30;102722.88;5182569;28;20030;-78
2022/01/22 06:08:53;;;;;;;1.35;1.35;;;;;;;4.83;85.18;102730.78;5189882;28;20664;-79
2022/01/22 06:11:26;;;;;;;1.63;1.52;;;;;;;4.81;84.97;102723.78;5221273;28;20423;-79
2022/01/22 06:13:57;;;;;;;3.85;3.63;;;;;;;4.77;85.39;102722.81;5205152;28;20137;-78
2022/01/22 06:16:27;;;;;;;2.75;2.60;;;;;;;4.88;84.78;102717.91;5204946;28;20040;-79
2022/01/22 06:18:58;;;;;;;2.00;1.88;;;;;;;4.69;85.70;102713.91;5204736;28;20048;-79
2022/01/22 06:21:28;;;;;;;4.07;3.67;;;;;;;4.81;85.46;102714.25;5205061;28;20029;-79
2022/01/22 06:23:59;;;;;;;4.03;3.67;;;;;;;4.73;86.10;102718.34;5205497;28;20036;-79
2022/01/22 06:26:29;;;;;;;2.78;2.58;;;;;;;4.78;85.11;102726.28;5203999;28;20104;-79
2022/01/22 06:29:01;;;;;;;1.63;1.52;;;;;;;4.79;85.39;102725.44;5221174;28;20029;-79
2022/01/22 06:31:32;;;;;;;1.85;1.75;;;;;;;4.78;85.28;102729.78;5221503;28;20808;-79
2022/01/22 06:34:04;;;;;;;1.10;1.10;;;;;;;4.83;85.82;102722.09;5222279;28;20029;-79
2022/01/22 06:36:34;;;;;;;2.55;2.13;;;;;;;4.85;84.90;102730.81;5185838;28;20102;-78
2022/01/22 06:41:45;;;;;;;2.53;1.80;;;;;;;4.77;85.96;102732.31;5203559;28;20049;-79
2022/01/22 06:44:23;;;;;;;1.50;1.50;;;;;;;4.79;85.64;102738.44;5196030;28;20040;-78
2022/01/22 06:46:55;;;;;;;2.83;2.63;;;;;;;4.82;85.58;102752.41;5218252;28;20050;-78
2022/01/22 06:49:26;;;;;;;2.90;2.70;;;;;;;4.83;85.52;102753.31;5203646;28;20057;-78
2022/01/22 06:51:56;;;;;;;2.00;1.90;;;;;;;4.84;86.18;102760.25;5203608;28;20068;-79
2022/01/22 06:54:27;;;;;;;1.58;1.48;;;;;;;4.89;84.93;102758.69;5220259;28;20033;-79
2022/01/22 06:56:57;;;;;;;2.58;2.47;;;;;;;4.92;85.03;102763.97;5185864;28;20048;-78
2022/01/22 06:59:28;;;;;;;2.60;2.40;;;;;;;4.81;86.12;102761.06;5187924;28;20708;-78
2022/01/22 07:02:00;;;;;;;2.58;2.38;;;;;;;4.87;85.74;102770.75;5218601;28;20057;-79
2022/01/22 07:04:31;;;;;;;1.48;1.38;;;;;;;4.74;85.92;102759.13;5204236;28;20032;-80
2022/01/22 07:07:02;;;;;;;3.42;3.00;;;;;;;4.80;86.13;102759.28;5199552;28;20072;-78
2022/01/22 07:09:33;;;;;;;2.35;2.22;;;;;;;4.80;86.44;102759.28;5192400;28;20033;-80
2022/01/22 07:12:12;;;;;;;2.55;2.28;;;;;;;4.89;86.04;102758.69;5224160;28;20101;-79
2022/01/22 07:14:45;;;;;;;2.78;2.58;;;;;;;4.88;85.51;102767.34;5209388;28;20531;-80
2022/01/22 07:17:15;;;;;;;2.55;2.10;;;;;;;4.86;85.37;102769.91;5205727;28;20048;-80
2022/01/22 07:19:46;;;;;;;1.23;1.23;;;;;;;4.75;86.06;102780.81;5216272;28;20029;-80
2022/01/22 07:22:34;;;;;;;1.50;1.40;;;;;;;4.82;85.95;102772.38;5212504;28;20068;-80
2022/01/22 07:25:05;;;;;;;1.88;1.77;;;;;;;4.93;85.98;102786.56;5202768;28;20030;-80
2022/01/22 07:27:35;;;;;;;1.20;1.20;;;;;;;4.90;85.27;102791.69;5214690;28;20040;-81
2022/01/22 07:30:06;;;;;;;2.58;2.42;;;;;;;4.85;86.14;102790.63;5196786;28;20030;-82
2022/01/22 07:32:41;;;;;;;2.95;2.72;;;;;;;4.87;85.50;102796.78;5184444;28;20072;-79
2022/01/22 07:35:16;;;;;;;4.68;3.42;;;;;;;4.94;85.75;102803.06;5168828;28;20037;-82
2022/01/22 07:37:47;;;;;;;1.63;1.52;;;;;;;4.89;85.74;102806.38;5184770;28;20083;-78
2022/01/22 07:40:18;;;;;;;2.75;2.63;;;;;;;4.89;85.81;102805.53;5208585;28;20045;-79
2022/01/22 07:42:48;;;;;;;1.77;1.67;;;;;;;4.90;85.66;102812.50;5186917;28;20037;-80
2022/01/22 07:45:19;;;;;;;5.80;4.15;;;;;;;4.88;85.92;102808.97;5186461;28;20526;-81
2022/01/22 07:47:52;;;;;;;3.28;2.97;;;;;;;4.91;85.56;102809.06;5198656;28;20037;-81
2022/01/22 07:50:26;;;;;;;2.33;2.13;;;;;;;4.95;85.93;102807.44;5207106;28;20444;-81
2022/01/22 07:52:57;;;;;;;3.92;2.33;;;;;;;4.94;85.57;102809.13;5198595;28;20571;-82
2022/01/22 07:55:31;;;;;;;2.35;2.25;;;;;;;4.95;85.54;102805.69;5172487;28;20041;-83
2022/01/22 07:58:01;;;;;;;;;;;;;;;4.99;85.83;102807.56;5210012;28;20041;-82
2022/01/22 08:00:32;;;;;;;3.20;1.67;;;;;;;4.98;85.68;102815.31;5207338;28;19935;-82
2022/01/22 08:03:08;;;;;;;1.95;1.85;;;;;;;5.02;85.68;102811.97;5207478;28;20055;-83
2022/01/22 08:05:39;;;;;;;2.33;2.22;;;;;;;4.97;86.45;102809.22;5221562;28;20104;-85
2022/01/22 08:08:10;;;;;;;2.97;2.75;;;;;;;5.07;86.20;102806.91;5206675;28;20548;-81
2022/01/22 08:10:40;;;;;;;1.92;1.80;;;;;;;5.03;85.96;102819.81;5194161;28;20048;-82
2022/01/22 08:13:13;;;;;;;3.13;2.40;;;;;;;5.03;85.75;102814.63;5231650;28;20445;-81
2022/01/22 08:15:44;;;;;;;3.10;2.92;;;;;;;5.04;85.59;102807.72;5211299;28;20174;-81
2022/01/22 08:18:17;;;;;;;1.67;1.58;;;;;;;5.00;86.52;102818.84;5219622;28;20073;-80
2022/01/22 08:20:48;;;;;;;2.72;2.35;;;;;;;4.99;86.67;102817.97;5209268;28;20135;-80
2022/01/22 08:23:20;;;;;;;2.80;2.25;;;;;;;5.15;86.09;102818.41;5210936;28;20045;-81
2022/01/22 08:25:50;;;;;;;3.25;3.05;;;;;;;5.08;86.28;102812.16;5222918;28;20381;-81
2022/01/22 08:31:25;;;;;;;1.85;1.75;;;;;;;4.99;87.45;102823.19;5208675;28;20063;-80
2022/01/22 08:36:48;;;;;;;5.63;3.92;;;;;;;5.08;87.01;102813.88;5186937;28;20045;-81
2022/01/22 08:39:19;;;;;;;3.47;3.25;;;;;;;5.19;86.40;102817.66;5173625;28;20022;-81
2022/01/22 08:41:49;;;;;;;1.05;1.05;;;;;;;5.12;86.10;102823.53;5222333;28;20044;-83
2022/01/22 08:44:20;;;;;;;2.30;2.10;;;;;;;5.08;87.22;102821.69;5188420;28;20033;-82
2022/01/22 08:46:51;;;;;;;0.75;0.75;;;;;;;5.08;86.43;102832.09;5188849;28;20101;-81
2022/01/22 08:49:29;;;;;;;2.33;1.85;;;;;;;5.08;86.67;102821.69;5210417;28;20025;-82
2022/01/22 08:52:01;;;;;;;2.03;1.92;;;;;;;5.15;86.52;102823.63;5230519;28;20064;-82
2022/01/22 08:54:34;;;;;;;3.65;2.50;;;;;;;5.15;86.89;102831.44;5195284;28;20032;-81
2022/01/22 08:57:05;;;;;;;1.95;1.85;;;;;;;5.11;87.14;102824.34;5190036;28;20041;-82
2022/01/22 08:59:37;;;;;;;2.28;2.15;;;;;;;5.04;87.75;102832.00;5193538;28;20044;-82
2022/01/22 09:02:07;;;;;;;1.75;1.45;;;;;;;5.11;87.27;102825.25;5191740;28;20040;-82
2022/01/22 09:04:38;;;;;;;1.90;1.80;;;;;;;5.09;87.69;102811.31;5191687;28;20037;-81
2022/01/22 09:07:09;;;;;;;1.83;1.67;;;;;;;5.06;87.94;102818.16;5205140;28;20048;-81
2022/01/22 09:09:40;;;;;;;2.50;2.38;;;;;;;5.00;88.02;102821.44;5196357;28;20086;-82
2022/01/22 09:12:10;;;;;;;2.20;2.10;;;;;;;5.04;88.35;102828.53;5193734;28;20043;-82
2022/01/22 09:14:41;;;;;;;1.17;1.17;;;;;;;5.15;87.27;102827.09;5191120;28;20067;-81
2022/01/22 09:17:13;;;;;;;3.15;2.88;;;;;;;5.15;87.72;102823.63;5215643;28;20049;-81
2022/01/22 09:19:46;;;;;;;2.30;2.20;;;;;;;5.15;87.53;102829.69;5171259;28;20040;-82
2022/01/22 09:22:17;;;;;;;2.97;1.85;;;;;;;5.22;87.10;102835.97;5171108;28;20034;-81
2022/01/22 09:24:47;;;;;;;2.17;2.08;;;;;;;5.16;87.62;102851.44;5175555;28;20872;-81
2022/01/22 09:27:19;;;;;;;1.25;1.25;;;;;;;5.16;87.28;102848.81;5178620;28;20041;-81
2022/01/22 09:29:50;;;;;;;2.53;1.95;;;;;;;5.15;88.36;102841.84;5202765;28;20049;-81
2022/01/22 09:32:20;;;;;;;1.55;1.48;;;;;;;5.09;88.24;102845.16;5190029;28;20079;-81
2022/01/22 09:34:54;;;;;;;4.18;3.88;;;;;;;5.18;88.52;102857.53;5170517;28;20025;-81
2022/01/22 09:37:25;;;;;;;3.72;3.45;;;;;;;5.12;88.15;102849.56;5168164;28;20052;-82
2022/01/22 09:39:55;;;;;;;3.95;3.63;;;;;;;5.13;88.37;102846.13;5205066;28;20385;-82
2022/01/22 09:42:26;;;;;;;3.92;3.63;;;;;;;5.23;87.61;102842.94;5183220;28;20048;-82
2022/01/22 09:44:57;;;;;;;1.67;1.58;;;;;;;5.20;87.65;102842.84;5172635;28;20049;-82
2022/01/22 09:47:30;;;;;;;1.88;1.77;;;;;;;5.24;87.77;102847.31;5197022;28;20258;-81
2022/01/22 09:50:02;;;;;;;2.65;2.42;;;;;;;5.23;88.50;102853.38;5204853;28;20688;-83
2022/01/22 09:52:35;;;;;;;1.92;1.75;;;;;;;5.23;88.58;102857.66;5184824;28;20042;-82
2022/01/22 09:55:06;;;;;;;3.33;3.05;;;;;;;5.30;88.17;102855.31;5192116;28;20637;-81
2022/01/22 09:57:37;;;;;;;2.65;2.42;;;;;;;5.40;87.28;102866.00;5195073;28;20030;-82
2022/01/22 10:00:13;;;;;;;1.77;1.67;;;;;;;5.46;87.65;102863.56;5227198;28;20037;-82
2022/01/22 10:02:50;;;;;;;3.47;3.17;;;;;;;5.39;88.21;102867.69;5220317;28;20040;-82
2022/01/22 10:05:35;;;;;;;3.75;3.28;;;;;;;5.40;88.09;102866.00;5223483;28;20021;-82
2022/01/22 10:08:30;;;;;;;3.92;3.72;;;;;;;5.42;87.67;102864.28;5188238;28;20071;-81
2022/01/22 10:11:02;;;;;;;1.92;1.83;;;;;;;5.44;88.18;102857.41;5208901;28;20543;-82
2022/01/22 10:13:47;;;;;;;2.53;2.38;;;;;;;5.42;88.25;102865.19;5190721;28;20065;-81
2022/01/22 10:16:23;;;;;;;2.65;2.40;;;;;;;5.48;88.63;102856.69;5215167;28;20038;-81
2022/01/22 10:19:26;;;;;;;1.70;1.33;;;;;;;5.53;87.90;102852.47;5186332;28;20036;-81
2022/01/22 10:22:04;;;;;;;1.95;1.85;;;;;;;5.54;88.22;102840.34;5158420;28;20472;-81
2022/01/22 10:24:43;;;;;;;2.50;2.40;;;;;;;5.56;88.07;102847.34;5198392;28;20025;-81
2022/01/22 10:30:01;;;;;;;2.13;2.03;;;;;;;5.60;88.14;102848.31;5206814;28;20396;-81
2022/01/22 10:32:47;;;;;;;2.05;1.95;;;;;;;5.72;87.93;102840.84;5189717;28;20107;-81
2022/01/22 10:35:24;;;;;;;1.85;1.75;;;;;;;5.63;87.26;102849.28;5209889;28;20060;-82
2022/01/22 10:37:56;;;;;;;2.40;2.22;;;;;;;5.62;87.50;102850.13;5221536;28;20174;-81
2022/01/22 10:40:29;;;;;;;1.38;1.30;;;;;;;5.65;87.35;102846.72;5208744;28;20028;-81
2022/01/22 10:43:29;;;;;;;1.13;1.02;;;;;;;5.65;88.00;102846.72;5191785;28;20037;-81
2022/01/22 10:46:10;;;;;;;0.93;0.93;;;;;;;5.63;88.00;102851.91;5205903;28;20341;-80
2022/01/22 10:49:04;;;;;;;1.10;1.10;;;;;;;5.67;88.49;102851.13;5205428;28;20124;-81
2022/01/22 10:52:03;;;;;;;3.67;3.10;;;;;;;5.74;87.98;102846.97;5202397;28;20106;-81
2022/01/22 10:54:36;;;;;;;2.45;2.33;;;;;;;5.74;88.74;102848.72;5189647;28;20068;-81
2022/01/22 10:57:19;;;;;;;1.63;1.58;;;;;;;5.77;88.31;102847.06;5177079;28;20054;-81
2022/01/22 10:59:55;;;;;;;2.25;2.13;;;;;;;5.89;88.15;102853.44;5185524;28;20139;-83
2022/01/22 11:02:37;;;;;;;2.60;2.40;;;;;;;5.94;87.67;102852.72;5217446;28;20116;-80
2022/01/22 11:05:10;;;;;;;2.88;2.65;;;;;;;6.05;87.04;102853.03;5167183;28;20124;-81
2022/01/22 11:07:41;;;;;;;3.13;2.92;;;;;;;6.00;87.71;102849.44;5200125;28;20460;-80
2022/01/22 11:10:12;;;;;;;1.48;1.42;;;;;;;6.01;87.54;102848.59;5187946;28;20033;-81
2022/01/22 11:12:43;;;;;;;3.35;2.78;;;;;;;6.14;86.92;102848.06;5200285;28;20086;-81
2022/01/22 11:15:13;;;;;;;2.53;2.33;;;;;;;6.13;86.72;102850.63;5190551;28;20052;-81
2022/01/22 11:17:45;;;;;;;1.48;1.42;;;;;;;6.05;87.45;102846.94;5184317;28;20054;-81
2022/01/22 11:20:18;;;;;;;2.53;2.35;;;;;;;6.09;87.17;102851.38;5201288;28;20120;-81
2022/01/22 11:22:50;;;;;;;3.20;2.92;;;;;;;6.00;87.45;102854.63;5193471;28;20037;-81
2022/01/22 11:25:23;;;;;;;2.15;1.70;;;;;;;6.09;87.39;102857.50;5201845;28;20034;-81
2022/01/22 11:27:53;;;;;;;3.03;2.72;;;;;;;6.18;86.31;102855.97;5221785;28;20788;-81
2022/01/22 11:30:28;;;;;;;2.15;2.03;;;;;;;6.21;86.53;102863.84;5188451;28;20033;-81
2022/01/22 11:33:13;;;;;;;2.40;2.28;;;;;;;6.12;86.62;102861.91;5174885;28;20427;-80
2022/01/22 11:35:54;;;;;;;1.05;1.05;;;;;;;6.04;87.37;102863.41;5184536;28;20025;-82
2022/01/22 11:38:37;;;;;;;1.98;1.88;;;;;;;6.03;87.25;102851.22;5214854;28;20045;-81
2022/01/22 11:41:20;;;;;;;3.70;3.40;;;;;;;6.11;87.13;102853.22;5209758;28;20013;-81
2022/01/22 11:44:17;;;;;;;1.20;1.17;;;;;;;6.08;86.49;102853.13;5158358;28;20049;-82
2022/01/22 11:46:58;;;;;;;2.35;2.22;;;;;;;6.06;86.65;102848.72;5197100;28;20409;-82
2022/01/22 11:49:31;;;;;;;1.88;1.77;;;;;;;6.08;87.11;102847.00;5170291;28;20033;-82
2022/01/22 11:52:07;;;;;;;1.77;1.70;;;;;;;6.07;86.83;102843.53;5174132;28;20152;-81
2022/01/22 11:55:09;;;;;;;1.58;1.52;;;;;;;6.10;86.31;102842.72;5193032;28;20033;-82
2022/01/22 11:57:42;;;;;;;2.13;2.03;;;;;;;6.14;86.96;102840.22;5183275;28;20045;-81
2022/01/22 12:00:29;;;;;;;3.05;2.85;;;;;;;6.15;86.76;102838.53;5188636;28;20017;-81
2022/01/22 12:03:08;;;;;;;2.45;2.28;;;;;;;6.20;86.40;102839.50;5192678;28;20129;-81
2022/01/22 12:05:54;;;;;;;1.98;1.88;;;;;;;6.21;86.50;102849.09;5174997;28;20068;-82
2022/01/22 12:08:25;;;;;;;1.98;1.60;;;;;;;6.24;86.33;102848.28;5187426;28;20099;-81
2022/01/22 12:16:54;;;;;;;2.38;2.22;;;;;;;6.17;86.59;102849.84;5183965;28;20527;-82
2022/01/22 12:19:47;;;;;;;2.38;2.17;;;;;;;6.16;86.70;102845.47;5218539;28;20123;-81
2022/01/22 12:22:30;;;;;;;3.42;3.22;;;;;;;6.28;85.83;102837.97;5179538;28;20125;-82
2022/01/22 12:25:26;;;;;;;2.63;2.47;;;;;;;6.12;85.80;102843.66;5184593;28;20034;-82
2022/01/22 12:27:58;;;;;;;2.25;2.15;;;;;;;6.25;86.28;102839.63;5185373;28;20515;-81
2022/01/22 12:30:43;;;;;;;10.80;2.22;;;;;;;6.22;86.13;102840.44;5169623;28;20038;-81
2022/01/22 12:33:35;;;;;;;3.42;3.13;;;;;;;6.24;85.74;102828.31;5215506;28;20563;-81
2022/01/22 12:36:17;;;;;;;3.80;2.35;;;;;;;6.17;86.31;102826.38;5184877;28;20083;-81
2022/01/22 12:39:27;;;;;;;2.20;2.00;;;;;;;6.27;85.81;102833.59;5159140;28;20071;-81
2022/01/22 12:41:58;;;;;;;1.23;1.23;;;;;;;6.35;86.20;102830.31;5166453;28;20421;-81
2022/01/22 12:44:32;;;;;;;2.53;1.95;;;;;;;6.28;86.33;102840.59;5170499;28;20097;-81
2022/01/22 12:47:11;;;;;;;4.55;4.22;;;;;;;6.25;86.27;102837.88;5134252;28;20245;-82
2022/01/22 12:49:46;;;;;;;2.45;2.25;;;;;;;6.26;86.37;102829.22;5210965;28;20043;-81
2022/01/22 12:52:17;;;;;;;2.05;1.95;;;;;;;6.30;85.96;102831.09;5173395;28;20034;-81
2022/01/22 12:54:55;;;;;;;1.70;1.60;;;;;;;6.36;85.98;102832.06;5228529;28;20033;-81
2022/01/22 12:57:28;;;;;;;2.35;2.25;;;;;;;6.33;85.80;102827.66;5198698;28;20036;-80
2022/01/22 13:00:17;;;;;;;1.60;1.52;;;;;;;6.36;86.07;102826.84;5205165;28;20029;-80
2022/01/22 13:02:55;;;;;;;2.78;2.58;;;;;;;6.32;85.50;102822.41;5201280;28;20071;-80
2022/01/22 13:05:28;;;;;;;1.38;1.23;;;;;;;6.38;86.09;102825.16;5205193;28;20025;-80
2022/01/22 13:08:01;;;;;;;2.28;2.17;;;;;;;6.33;86.04;102837.19;5222149;28;20245;-81
2022/01/22 13:10:43;;;;;;;2.05;1.95;;;;;;;6.34;85.51;102834.66;5197772;28;20021;-80
2022/01/22 13:13:18;;;;;;;3.20;2.65;;;;;;;6.35;85.66;102838.13;5220402;28;20522;-81
2022/01/22 13:16:12;;;;;;;3.15;2.95;;;;;;;6.34;85.98;102833.75;5192472;28;20037;-81
2022/01/22 13:18:58;;;;;;;3.85;3.45;;;;;;;6.41;85.83;102833.06;5187455;28;20041;-80
2022/01/22 13:21:33;;;;;;;3.67;3.38;;;;;;;6.30;86.28;102827.56;5204768;28;20060;-81
2022/01/22 13:24:11;;;;;;;4.18;2.53;;;;;;;6.41;85.90;102830.44;5174202;28;20029;-79
2022/01/22 13:26:52;;;;;;;2.78;2.58;;;;;;;6.30;86.28;102838.91;5194537;28;20061;-83
2022/01/22 13:29:42;;;;;;;1.95;1.85;;;;;;;6.32;86.15;102835.47;5193183;28;20060;-80
2022/01/22 13:32:47;;;;;;;11.35;2.63;;;;;;;6.30;86.56;102833.69;5194025;28;20048;-82
2022/01/22 13:40:50;;;;;;;1.88;1.77;;;;;;;6.46;85.52;102844.50;5239843;28;20087;-80
2022/01/22 13:49:44;;;;;;;6.13;4.03;;;;;;;6.37;86.50;102839.03;5221774;28;20658;-83